Map

Track Data

SID SEASON NUMBER BASIN SUBBASIN NAME ISO_TIME NATURE LAT LON WMO_WIND WMO_PRES WMO_AGENCY TRACK_TYPE DIST2LAND LANDFALL IFLAG USA_AGENCY USA_ATCF_ID USA_LAT USA_LON USA_RECORD USA_STATUS USA_WIND USA_PRES USA_SSHS USA_R34_NE USA_R34_SE USA_R34_SW USA_R34_NW USA_R50_NE USA_R50_SE USA_R50_SW USA_R50_NW USA_R64_NE USA_R64_SE USA_R64_SW USA_R64_NW USA_POCI USA_ROCI USA_RMW USA_EYE TOKYO_LAT TOKYO_LON TOKYO_GRADE TOKYO_WIND TOKYO_PRES TOKYO_R50_DIR TOKYO_R50_LONG TOKYO_R50_SHORT TOKYO_R30_DIR TOKYO_R30_LONG TOKYO_R30_SHORT TOKYO_LAND CMA_LAT CMA_LON CMA_CAT CMA_WIND CMA_PRES HKO_LAT HKO_LON HKO_CAT HKO_WIND HKO_PRES NEWDELHI_LAT NEWDELHI_LON NEWDELHI_GRADE NEWDELHI_WIND NEWDELHI_PRES NEWDELHI_CI NEWDELHI_DP NEWDELHI_POCI REUNION_LAT REUNION_LON REUNION_TYPE REUNION_WIND REUNION_PRES REUNION_TNUM REUNION_CI REUNION_RMW REUNION_R34_NE REUNION_R34_SE REUNION_R34_SW REUNION_R34_NW REUNION_R50_NE REUNION_R50_SE REUNION_R50_SW REUNION_R50_NW REUNION_R64_NE REUNION_R64_SE REUNION_R64_SW REUNION_R64_NW BOM_LAT BOM_LON BOM_TYPE BOM_WIND BOM_PRES BOM_TNUM BOM_CI BOM_RMW BOM_R34_NE BOM_R34_SE BOM_R34_SW BOM_R34_NW BOM_R50_NE BOM_R50_SE BOM_R50_SW BOM_R50_NW BOM_R64_NE BOM_R64_SE BOM_R64_SW BOM_R64_NW BOM_ROCI BOM_POCI BOM_EYE BOM_POS_METHOD BOM_PRES_METHOD NADI_LAT NADI_LON NADI_CAT NADI_WIND NADI_PRES WELLINGTON_LAT WELLINGTON_LON WELLINGTON_WIND WELLINGTON_PRES DS824_LAT DS824_LON DS824_STAGE DS824_WIND DS824_PRES TD9636_LAT TD9636_LON TD9636_STAGE TD9636_WIND TD9636_PRES TD9635_LAT TD9635_LON TD9635_WIND TD9635_PRES TD9635_ROCI NEUMANN_LAT NEUMANN_LON NEUMANN_CLASS NEUMANN_WIND NEUMANN_PRES MLC_LAT MLC_LON MLC_CLASS MLC_WIND MLC_PRES USA_GUST BOM_GUST BOM_GUST_PER REUNION_GUST REUNION_GUST_PER USA_SEAHGT USA_SEARAD_NE USA_SEARAD_SE USA_SEARAD_SW USA_SEARAD_NW STORM_SPEED STORM_DIR
1945177N23085 1945 29 NI BB NOT_NAMED 1945-06-25 18:00:00 TS 22.9000 84.7000 main 0 0 O________O____ jtwc_io IO021945 22.9000 84.7000 -1 22.9000 84.7000 TC 3 297
1945177N23085 1945 29 NI BB NOT_NAMED 1945-06-25 21:00:00 TS 22.9625 84.5626 main 0 0 P________P____ IO021945 22.9625 84.5626 -1 22.9625 84.5626 TC 3 290
1945177N23085 1945 29 NI BB NOT_NAMED 1945-06-26 00:00:00 TS 23.0000 84.4000 main 0 0 O________O____ jtwc_io IO021945 23.0000 84.4000 -1 23.0000 84.4000 TC 25 3 276
1945177N23085 1945 29 NI BB NOT_NAMED 1945-06-26 03:00:00 TS 23.0000 84.2000 main 0 0 P________PO___ IO021945 23.0000 84.1999 -1 23.0000 84.1999 TC 25 23.0000 84.2000 1 4 271
1945177N23085 1945 29 NI BB NOT_NAMED 1945-06-26 06:00:00 TS 23.0053 84.0084 main 0 0 O________OP___ jtwc_io IO021945 23.0000 84.0000 -1 23.0000 84.0000 TC 25 23.0267 84.0423 1 3 279
1945177N23085 1945 29 NI BB NOT_NAMED 1945-06-26 09:00:00 TS 23.0507 83.8494 main 0 0 P________PP___ IO021945 23.0500 83.8350 -1 23.0500 83.8350 TC 25 23.0527 83.8876 1 3 288
1945177N23085 1945 29 NI BB NOT_NAMED 1945-06-26 12:00:00 TS 23.0924 83.7130 main 0 0 O________OP___ jtwc_io IO021945 23.1000 83.7000 -1 23.1000 83.7000 TC 25 23.0773 83.7391 1 2 282
1945177N23085 1945 29 NI BB NOT_NAMED 1945-06-26 15:00:00 TS 23.1000 83.6000 main 0 0 P________PO___ IO021945 23.1000 83.6000 -1 23.1000 83.6000 TC 25 23.1000 83.6000 1 2 274
1945177N23085 1945 29 NI BB NOT_NAMED 1945-06-26 18:00:00 TS 23.1070 83.4906 main 0 0 O________OP___ jtwc_io IO021945 23.1000 83.5000 -1 23.1000 83.5000 TC 25 23.1209 83.4718 1 2 282
1945177N23085 1945 29 NI BB NOT_NAMED 1945-06-26 21:00:00 TS 23.1475 83.3500 main 0 0 P________PP___ IO021945 23.1500 83.3500 -1 23.1500 83.3500 TC 25 23.1424 83.3499 1 3 288
1945177N23085 1945 29 NI BB NOT_NAMED 1945-06-27 00:00:00 TS 23.1892 83.2094 main 0 0 O________OP___ jtwc_io IO021945 23.2000 83.2000 -1 23.2000 83.2000 TC 25 23.1677 83.2281 1 2 283
1945177N23085 1945 29 NI BB NOT_NAMED 1945-06-27 03:00:00 TS 23.2000 83.1000 main 0 0 P________PO___ IO021945 23.2000 83.1000 -1 23.2000 83.1000 TC 25 23.2000 83.1000 1 2 277
1945177N23085 1945 29 NI BB NOT_NAMED 1945-06-27 06:00:00 TS 23.2126 83.0113 main 0 0 O________OP___ jtwc_io IO021945 23.2000 83.0000 -1 23.2000 83.0000 TC 25 23.2377 83.0340 1 2 286
1945177N23085 1945 29 NI BB NOT_NAMED 1945-06-27 09:00:00 TS 23.2510 82.9031 main 0 0 P________PP___ IO021945 23.2349 82.8799 -1 23.2349 82.8799 TC 25 23.2832 82.9494 1 3 291
1945177N23085 1945 29 NI BB NOT_NAMED 1945-06-27 12:00:00 TS 23.3124 82.7300 main 0 0 O________OP___ jtwc_io IO021945 23.3000 82.7000 -1 23.3000 82.7000 TC 25 23.3372 82.7901 1 4 292
1945177N23085 1945 29 NI BB NOT_NAMED 1945-06-27 15:00:00 TS 23.3996 82.4933 main 0 0 P________PO___ IO021945 23.3994 82.4900 -1 23.3994 82.4900 TC 25 23.4000 82.5000 1 6 286
1945177N23085 1945 29 NI BB NOT_NAMED 1945-06-27 18:00:00 TS 23.4885 82.0625 main 0 0 O________OP___ jtwc_io IO021945 23.5000 82.1000 -1 23.5000 82.1000 TC 25 23.4655 81.9874 1 10 278
1945177N23085 1945 29 NI BB NOT_NAMED 1945-06-27 21:00:00 TS 23.5464 81.3741 main 0 0 P________PP___ IO021945 23.5508 81.3874 -1 23.5508 81.3874 TC 25 23.5375 81.3477 1 13 275
1945177N23085 1945 29 NI BB NOT_NAMED 1945-06-28 00:00:00 TS 23.6052 80.6197 main 0 0 O________OP___ jtwc_io IO021945 23.6000 80.6000 -1 23.6000 80.6000 TC 25 23.6155 80.6591 1 13 277
1945177N23085 1945 29 NI BB NOT_NAMED 1945-06-28 03:00:00 TS 23.6947 80.0033 main 0 0 P________PO___ IO021945 23.6921 80.0050 -1 23.6921 80.0050 TC 25 23.7000 80.0000 1 10 280
1945177N23085 1945 29 NI BB NOT_NAMED 1945-06-28 06:00:00 TS 23.7918 79.4938 main 0 0 O________OP___ jtwc_io IO021945 23.8000 79.5000 -1 23.8000 79.5000 TC 25 23.7754 79.4813 1 9 282
1945177N23085 1945 29 NI BB NOT_NAMED 1945-06-28 09:00:00 TS 23.8818 79.0296 main 0 0 P________PP___ IO021945 23.8922 79.0423 -1 23.8922 79.0423 TC 25 23.8610 79.0041 1 9 283
1945177N23085 1945 29 NI BB NOT_NAMED 1945-06-28 12:00:00 TS 23.9887 78.5833 main 0 0 O________OP___ jtwc_io IO021945 24.0000 78.6000 -1 24.0000 78.6000 TC 25 23.9662 78.5499 1 9 286
1945177N23085 1945 29 NI BB NOT_NAMED 1945-06-28 15:00:00 TS 24.1233 78.1000 main 0 0 P________PO___ IO021945 24.1350 78.0999 -1 24.1350 78.0999 TC 25 24.1000 78.1000 1 10 289
1945177N23085 1945 29 NI AS NOT_NAMED 1945-06-28 18:00:00 TS 24.2959 77.5978 main 0 0 O________OP___ jtwc_io IO021945 24.3000 77.6000 -1 24.3000 77.6000 TC 25 24.2877 77.5933 1 10 293
1945177N23085 1945 29 NI AS NOT_NAMED 1945-06-28 21:00:00 TS 24.5000 77.1254 main 0 0 P________PP___ IO021945 24.4998 77.1425 -1 24.4998 77.1425 TC 25 24.5004 77.0912 1 9 296
1945177N23085 1945 29 NI AS NOT_NAMED 1945-06-29 00:00:00 TS 24.7043 76.6728 main 0 0 O________OP___ jtwc_io IO021945 24.7000 76.7000 -1 24.7000 76.7000 TC 25 24.7128 76.6183 1 9 294
1945177N23085 1945 29 NI AS NOT_NAMED 1945-06-29 03:00:00 TS 24.8768 76.2083 main 0 0 P________PO___ IO021945 24.8651 76.2125 -1 24.8651 76.2125 TC 25 24.9000 76.2000 1 8 292
1945177N23085 1945 29 NI AS NOT_NAMED 1945-06-29 06:00:00 TS 25.0079 75.8235 main 0 0 O________OP___ jtwc_io IO021945 25.0000 75.8000 -1 25.0000 75.8000 TC 25 25.0238 75.8706 1 6 293
1945177N23085 1945 29 NI AS NOT_NAMED 1945-06-29 09:00:00 TS 25.1119 75.5836 main 0 0 P________PP___ IO021945 25.1072 75.5773 -1 25.1072 75.5773 TC 25 25.1214 75.5963 1 4 296
1945177N23085 1945 29 NI AS NOT_NAMED 1945-06-29 12:00:00 TS 25.2028 75.3830 main 0 0 O________OP___ jtwc_io IO021945 25.2000 75.4000 -1 25.2000 75.4000 TC 25 25.2083 75.3489 1 5 293
1945177N23085 1945 29 NI AS NOT_NAMED 1945-06-29 15:00:00 TS 25.2950 75.1100 main 0 0 P________PO___ IO021945 25.2925 75.1149 -1 25.2925 75.1149 TC 25 25.3000 75.1000 1 6 291
1945177N23085 1945 29 NI AS NOT_NAMED 1945-06-29 18:00:00 TS 25.4033 74.8108 main 0 0 O________OP___ jtwc_io IO021945 25.4000 74.8000 -1 25.4000 74.8000 TC 25 25.4082 74.8270 1 6 294
1945177N23085 1945 29 NI AS NOT_NAMED 1945-06-29 21:00:00 TS 25.5362 74.5106 main 0 0 P________PP___ IO021945 25.5401 74.4952 -1 25.5401 74.4952 TC 25 25.5310 74.5311 1 6 297
1945177N23085 1945 29 NI AS NOT_NAMED 1945-06-30 00:00:00 TS 25.6817 74.2098 main 0 0 O________OP___ jtwc_io IO021945 25.7000 74.2000 -1 25.7000 74.2000 TC 25 25.6633 74.2196 1 6 296
1945177N23085 1945 29 NI AS NOT_NAMED 1945-06-30 03:00:00 NR 25.8000 73.9000 main 0 __________O___ IO021945 -1 TC 25.8000 73.9000 1 6 293

About IBTrACS Database

This database is a web-friendly format of International Best Track Archive for Climate Stewardship (IBTrACS), a global best track data archive curated by NOAA dating back to 1842.

Updated: 2021-11-26